createdAt,value
2023-02-11T00:00:14.692Z,70.22
2023-02-11T00:02:29.568Z,70.25
2023-02-11T00:04:20.909Z,70.19
2023-02-11T00:06:12.611Z,70.20
2023-02-11T00:08:04.557Z,70.07
2023-02-11T00:09:56.121Z,70.02
2023-02-11T00:11:47.213Z,70.10
2023-02-11T00:13:38.512Z,69.97
2023-02-11T00:15:29.806Z,69.85
2023-02-11T00:17:21.980Z,69.89
2023-02-11T00:19:13.363Z,69.88
2023-02-11T00:21:09.251Z,69.70
2023-02-11T00:23:00.449Z,69.74
2023-02-11T00:24:51.939Z,69.62
2023-02-11T00:26:43.556Z,69.63
2023-02-11T00:28:35.022Z,69.30
2023-02-11T00:30:26.732Z,69.35
2023-02-11T00:32:18.145Z,69.27
2023-02-11T00:34:09.503Z,69.20
2023-02-11T00:36:07.625Z,69.38
2023-02-11T00:37:58.955Z,69.29
2023-02-11T00:39:50.260Z,69.20
2023-02-11T00:41:41.631Z,69.24
2023-02-11T00:43:32.663Z,69.20
2023-02-11T00:45:24.024Z,69.12
2023-02-11T00:47:15.536Z,69.11
2023-02-11T00:49:07.025Z,69.16
2023-02-11T00:50:58.277Z,69.19
2023-02-11T00:52:49.823Z,69.10
2023-02-11T00:54:41.182Z,69.03
2023-02-11T00:56:32.434Z,69.00
2023-02-11T00:58:23.826Z,69.02
2023-02-11T01:00:15.501Z,69.03
2023-02-11T01:02:06.509Z,69.01
2023-02-11T01:03:57.974Z,69.01
2023-02-11T01:05:49.803Z,68.86
2023-02-11T01:07:41.417Z,68.96
2023-02-11T01:09:32.757Z,68.82
2023-02-11T01:11:24.428Z,69.00
2023-02-11T01:13:15.983Z,69.00
2023-02-11T01:15:08.048Z,69.04
2023-02-11T01:16:59.230Z,69.05
2023-02-11T01:18:50.649Z,69.01
2023-02-11T01:20:42.089Z,69.00
2023-02-11T01:22:34.444Z,68.95
2023-02-11T01:24:25.837Z,69.04
2023-02-11T01:26:17.044Z,69.02
2023-02-11T01:28:16.069Z,69.08
2023-02-11T01:30:08.730Z,68.97
2023-02-11T01:32:01.251Z,69.10
2023-02-11T01:33:53.028Z,69.20
2023-02-11T01:35:44.661Z,69.12
2023-02-11T01:37:36.360Z,69.22
2023-02-11T01:39:27.791Z,69.06
2023-02-11T01:41:19.567Z,69.05
2023-02-11T01:43:11.675Z,69.10
2023-02-11T01:45:41.462Z,69.12
2023-02-11T01:47:33.075Z,69.01
2023-02-11T01:49:45.853Z,69.06
2023-02-11T01:51:44.391Z,69.09
2023-02-11T01:53:55.539Z,69.06
2023-02-11T01:56:15.953Z,69.15
2023-02-11T01:58:07.596Z,69.05
2023-02-11T02:00:10.818Z,68.92
2023-02-11T02:02:07.317Z,68.96
2023-02-11T02:04:01.192Z,68.83
2023-02-11T02:06:03.174Z,68.86
2023-02-11T02:08:03.302Z,68.85
2023-02-11T02:09:59.395Z,68.79
2023-02-11T02:11:51.101Z,68.89
2023-02-11T02:13:42.436Z,68.98
2023-02-11T02:15:35.078Z,69.00
2023-02-11T02:17:38.746Z,68.98
2023-02-11T02:20:02.448Z,68.92
2023-02-11T02:22:24.705Z,68.97
2023-02-11T02:24:50.643Z,69.00
2023-02-11T02:27:02.982Z,69.09
2023-02-11T02:29:29.618Z,68.97
2023-02-11T02:31:42.255Z,68.80
2023-02-11T02:33:40.680Z,68.71
2023-02-11T02:35:48.010Z,68.66
2023-02-11T02:37:48.610Z,68.59
2023-02-11T02:39:40.248Z,68.46
2023-02-11T02:41:33.966Z,68.41
2023-02-11T02:43:27.214Z,68.25
2023-02-11T02:45:18.931Z,68.19
2023-02-11T02:47:10.560Z,68.06
2023-02-11T02:49:02.051Z,67.97
2023-02-11T02:51:18.967Z,67.95
2023-02-11T02:53:33.097Z,67.72
2023-02-11T02:55:44.507Z,67.60
2023-02-11T02:57:48.800Z,67.58
2023-02-11T02:59:53.595Z,67.60
2023-02-11T03:02:00.832Z,67.62
2023-02-11T03:04:04.058Z,67.66
2023-02-11T03:06:06.145Z,67.72
2023-02-11T03:08:13.801Z,67.73
2023-02-11T03:10:13.634Z,67.90
2023-02-11T03:12:06.252Z,67.85
2023-02-11T03:13:58.100Z,67.92
2023-02-11T03:15:52.931Z,67.95
2023-02-11T03:17:47.116Z,67.88
2023-02-11T03:19:41.548Z,67.93
2023-02-11T03:21:33.386Z,67.94
2023-02-11T03:23:40.708Z,68.05
2023-02-11T03:25:38.303Z,67.99
2023-02-11T03:27:41.859Z,67.76
2023-02-11T03:29:54.267Z,67.75
2023-02-11T03:31:56.838Z,67.77
2023-02-11T03:34:08.834Z,67.70
2023-02-11T03:36:06.960Z,67.76
2023-02-11T03:38:02.716Z,67.81
2023-02-11T03:39:57.701Z,67.77
2023-02-11T03:41:50.139Z,67.74
2023-02-11T03:43:47.635Z,67.64
2023-02-11T03:45:39.823Z,67.82
2023-02-11T03:47:32.981Z,67.59
2023-02-11T03:49:24.348Z,67.72
2023-02-11T03:51:16.316Z,67.58
2023-02-11T03:53:08.196Z,67.92
2023-02-11T03:55:00.816Z,67.75
2023-02-11T03:56:54.814Z,67.77
2023-02-11T03:58:46.623Z,67.68
2023-02-11T04:00:41.010Z,67.65
2023-02-11T04:02:35.024Z,67.57
2023-02-11T04:04:26.574Z,67.44
2023-02-11T04:06:18.063Z,67.55
2023-02-11T04:08:09.608Z,67.42
2023-02-11T04:10:01.093Z,67.31
2023-02-11T04:11:52.176Z,67.28
2023-02-11T04:13:43.503Z,67.29
2023-02-11T04:15:34.547Z,67.19
2023-02-11T04:17:25.776Z,67.23
2023-02-11T04:19:17.163Z,67.17
2023-02-11T04:21:09.292Z,67.04
2023-02-11T04:23:01.020Z,67.27
2023-02-11T04:24:52.465Z,67.32
2023-02-11T04:26:44.065Z,67.23
2023-02-11T04:28:36.360Z,67.37
2023-02-11T04:30:28.724Z,67.47
2023-02-11T04:32:20.058Z,67.57
2023-02-11T04:34:11.304Z,67.70
2023-02-11T04:36:02.332Z,67.82
2023-02-11T04:37:53.862Z,67.83
2023-02-11T04:39:45.424Z,67.81
2023-02-11T04:41:36.590Z,67.86
2023-02-11T04:43:27.988Z,67.88
2023-02-11T04:45:19.707Z,67.83
2023-02-11T04:47:13.642Z,67.93
2023-02-11T04:49:04.910Z,67.83
2023-02-11T04:50:56.314Z,67.82
2023-02-11T04:52:47.515Z,67.69
2023-02-11T04:54:39.446Z,67.65
2023-02-11T04:56:30.817Z,67.58
2023-02-11T04:58:22.237Z,67.52
2023-02-11T05:00:14.097Z,67.57
2023-02-11T05:02:05.761Z,67.56
2023-02-11T05:03:57.288Z,67.55
2023-02-11T05:05:48.631Z,67.41
2023-02-11T05:07:40.443Z,67.55
2023-02-11T05:09:31.801Z,67.40
2023-02-11T05:11:24.908Z,67.40
2023-02-11T05:13:16.456Z,67.34
2023-02-11T05:15:08.030Z,67.30
2023-02-11T05:16:59.361Z,67.46
2023-02-11T05:18:52.626Z,67.35
2023-02-11T05:20:44.550Z,67.07
2023-02-11T05:22:35.811Z,66.98
2023-02-11T05:24:27.303Z,66.86
2023-02-11T05:26:19.031Z,66.65
2023-02-11T05:28:10.547Z,66.47
2023-02-11T05:30:01.797Z,66.12
2023-02-11T05:31:53.143Z,66.21
2023-02-11T05:33:44.602Z,66.24
2023-02-11T05:35:36.246Z,65.76
2023-02-11T05:37:27.705Z,65.41
2023-02-11T05:39:19.283Z,65.38
2023-02-11T05:41:11.455Z,65.51
2023-02-11T05:43:02.757Z,65.29
2023-02-11T05:44:54.257Z,65.39
2023-02-11T05:46:45.752Z,65.40
2023-02-11T05:48:37.265Z,65.62
2023-02-11T05:50:28.705Z,65.48
2023-02-11T05:52:21.266Z,65.70
2023-02-11T05:54:12.479Z,65.66
2023-02-11T05:56:03.656Z,65.62
2023-02-11T05:57:55.137Z,65.43
2023-02-11T05:59:46.514Z,65.20
2023-02-11T06:01:37.684Z,65.43
2023-02-11T06:03:29.129Z,65.41
2023-02-11T06:05:20.870Z,65.58
2023-02-11T06:07:11.906Z,65.48
2023-02-11T06:09:04.055Z,65.59
2023-02-11T06:10:55.354Z,65.63
2023-02-11T06:12:46.475Z,65.92
2023-02-11T06:14:37.569Z,65.89
2023-02-11T06:16:29.088Z,66.04
2023-02-11T06:18:20.648Z,66.13
2023-02-11T06:20:12.364Z,66.15
2023-02-11T06:22:04.064Z,66.25
2023-02-11T06:23:55.290Z,66.24
2023-02-11T06:25:46.563Z,66.18
2023-02-11T06:27:39.009Z,66.19
2023-02-11T06:29:30.331Z,66.26
2023-02-11T06:31:21.897Z,66.40
2023-02-11T06:33:13.122Z,66.36
2023-02-11T06:35:04.569Z,66.34
2023-02-11T06:36:56.024Z,66.38
2023-02-11T06:38:47.911Z,66.31
2023-02-11T06:40:39.470Z,66.25
2023-02-11T06:42:30.769Z,66.30
2023-02-11T06:44:22.263Z,66.27
2023-02-11T06:46:14.309Z,66.37
2023-02-11T06:48:05.792Z,66.45
2023-02-11T06:49:56.965Z,66.38
2023-02-11T06:51:48.542Z,66.37
2023-02-11T06:53:42.519Z,66.33
2023-02-11T06:55:35.387Z,66.33
2023-02-11T06:57:26.520Z,66.21
2023-02-11T06:59:20.668Z,66.47
2023-02-11T07:01:14.188Z,66.54
2023-02-11T07:03:05.530Z,66.51
2023-02-11T07:04:57.034Z,66.48
2023-02-11T07:06:48.143Z,66.50
2023-02-11T07:08:40.559Z,66.74
2023-02-11T07:10:31.919Z,66.79
2023-02-11T07:12:23.362Z,66.89
2023-02-11T07:14:14.919Z,67.00
2023-02-11T07:16:07.973Z,67.07
2023-02-11T07:17:59.707Z,67.51
2023-02-11T07:19:50.664Z,67.65
2023-02-11T07:21:41.971Z,67.93
2023-02-11T07:23:34.134Z,67.99
2023-02-11T07:25:25.625Z,68.15
2023-02-11T07:27:17.312Z,68.67
2023-02-11T07:29:08.912Z,68.88
2023-02-11T07:31:00.598Z,68.81
2023-02-11T07:32:51.931Z,68.99
2023-02-11T07:34:43.030Z,69.03
2023-02-11T07:36:34.648Z,69.15
2023-02-11T07:38:26.132Z,69.15
2023-02-11T07:40:17.641Z,69.10
2023-02-11T07:42:08.848Z,69.01
2023-02-11T07:44:03.250Z,69.10
2023-02-11T07:45:54.573Z,69.23
2023-02-11T07:47:45.828Z,69.37
2023-02-11T07:49:37.380Z,69.51
2023-02-11T07:51:30.289Z,70.25
2023-02-11T07:53:21.760Z,70.53
2023-02-11T07:55:13.321Z,70.84
2023-02-11T07:57:04.804Z,71.51
2023-02-11T07:59:00.423Z,71.77
2023-02-11T08:00:52.053Z,72.24
2023-02-11T08:02:43.677Z,72.11
2023-02-11T08:04:35.459Z,71.92
2023-02-11T08:06:29.134Z,71.89
2023-02-11T08:08:20.273Z,71.77
2023-02-11T08:10:11.810Z,71.71
2023-02-11T08:12:03.099Z,71.66
2023-02-11T08:13:54.815Z,71.59
2023-02-11T08:15:46.179Z,71.58
2023-02-11T08:17:37.609Z,71.58
2023-02-11T08:19:29.400Z,71.57
2023-02-11T08:21:21.169Z,71.53
2023-02-11T08:23:12.327Z,71.59
2023-02-11T08:25:04.503Z,71.53
2023-02-11T08:26:55.803Z,71.78
2023-02-11T08:28:48.088Z,71.76
2023-02-11T08:30:39.587Z,71.80
2023-02-11T08:32:31.187Z,71.80
2023-02-11T08:34:22.798Z,71.67
2023-02-11T08:36:16.953Z,71.54
2023-02-11T08:38:09.013Z,71.82
2023-02-11T08:40:00.257Z,71.82
2023-02-11T08:41:54.810Z,71.94
2023-02-11T08:43:46.400Z,72.15
2023-02-11T08:45:37.672Z,72.57
2023-02-11T08:47:29.081Z,72.96
2023-02-11T08:49:20.988Z,73.49
2023-02-11T08:51:27.571Z,73.51
2023-02-11T08:53:18.963Z,73.60
2023-02-11T08:55:10.569Z,73.93
2023-02-11T08:57:02.097Z,74.20
2023-02-11T08:58:54.359Z,74.41
2023-02-11T09:00:46.312Z,74.38
2023-02-11T09:02:37.798Z,74.35
2023-02-11T09:04:29.632Z,74.39
2023-02-11T09:06:22.507Z,74.22
2023-02-11T09:08:14.565Z,73.83
2023-02-11T09:10:06.410Z,73.51
2023-02-11T09:11:57.911Z,72.68
2023-02-11T09:13:50.969Z,72.39
2023-02-11T09:15:46.954Z,72.14
2023-02-11T09:17:38.461Z,72.00
2023-02-11T09:19:29.748Z,71.98
2023-02-11T09:21:21.411Z,71.77
2023-02-11T09:23:12.628Z,71.86
2023-02-11T09:25:03.793Z,71.56
2023-02-11T09:26:55.075Z,71.44
2023-02-11T09:28:47.165Z,71.22
2023-02-11T09:30:39.055Z,71.06
2023-02-11T09:32:30.400Z,70.87
2023-02-11T09:34:21.737Z,70.99
2023-02-11T09:36:14.492Z,70.85
2023-02-11T09:38:05.926Z,70.48
2023-02-11T09:39:57.209Z,70.36
2023-02-11T09:41:55.354Z,70.08
2023-02-11T09:43:47.250Z,69.86
2023-02-11T09:45:38.921Z,69.94
2023-02-11T09:47:35.361Z,69.83
2023-02-11T09:49:49.233Z,69.63
2023-02-11T09:51:52.045Z,69.43
2023-02-11T09:53:43.607Z,69.39
2023-02-11T09:55:39.470Z,69.73
2023-02-11T09:57:35.718Z,69.69
2023-02-11T09:59:26.942Z,69.68
2023-02-11T10:01:40.424Z,69.55
2023-02-11T10:03:34.248Z,69.57
2023-02-11T10:05:35.398Z,69.71
2023-02-11T10:07:43.296Z,69.79
2023-02-11T10:09:53.750Z,70.10
2023-02-11T10:11:57.031Z,70.13
2023-02-11T10:14:13.107Z,70.38
2023-02-11T10:16:18.720Z,70.45
2023-02-11T10:18:12.906Z,70.52
2023-02-11T10:20:26.704Z,70.59
2023-02-11T10:22:25.830Z,70.69
2023-02-11T10:24:17.709Z,70.77
2023-02-11T10:26:16.900Z,70.87
2023-02-11T10:28:17.026Z,70.77
2023-02-11T10:30:23.514Z,70.94
2023-02-11T10:32:46.886Z,70.92
2023-02-11T10:34:41.518Z,70.78
2023-02-11T10:36:41.427Z,70.83
2023-02-11T10:38:33.889Z,70.78
2023-02-11T10:40:27.082Z,70.70
2023-02-11T10:42:18.626Z,70.68
2023-02-11T10:44:22.160Z,70.62
2023-02-11T10:46:23.121Z,70.73
2023-02-11T10:48:36.260Z,70.61
2023-02-11T10:50:30.194Z,70.44
2023-02-11T10:52:26.372Z,70.73
2023-02-11T10:54:21.219Z,70.71
2023-02-11T10:56:20.994Z,70.93
2023-02-11T10:58:24.750Z,71.12
2023-02-11T11:00:32.413Z,71.20
2023-02-11T11:02:32.146Z,71.30
2023-02-11T11:04:45.239Z,71.38
2023-02-11T11:06:36.611Z,71.48
2023-02-11T11:08:41.958Z,71.69
2023-02-11T11:10:45.894Z,71.70
2023-02-11T11:12:46.380Z,71.87
2023-02-11T11:14:38.100Z,72.09
2023-02-11T11:16:34.066Z,72.21
2023-02-11T11:18:25.326Z,72.34
2023-02-11T11:20:20.058Z,72.39
2023-02-11T11:22:21.379Z,72.44
2023-02-11T11:24:19.060Z,72.30
2023-02-11T11:26:14.383Z,72.19
2023-02-11T11:28:05.722Z,72.01
2023-02-11T11:29:57.331Z,71.78
2023-02-11T11:31:52.393Z,71.77
2023-02-11T11:33:46.879Z,71.47
2023-02-11T11:35:38.506Z,71.41
2023-02-11T11:37:33.956Z,71.28
2023-02-11T11:39:28.801Z,71.12
2023-02-11T11:41:26.818Z,70.82
2023-02-11T11:43:23.083Z,70.86
2023-02-11T11:45:19.647Z,70.77
2023-02-11T11:47:10.920Z,70.60
2023-02-11T11:49:25.912Z,70.60
2023-02-11T11:51:17.361Z,70.41
2023-02-11T11:53:29.347Z,70.55
2023-02-11T11:55:25.448Z,70.62
2023-02-11T11:57:19.721Z,70.66
2023-02-11T11:59:14.892Z,70.58
2023-02-11T12:01:09.116Z,70.69
2023-02-11T12:03:21.658Z,70.64
2023-02-11T12:05:36.486Z,70.65
2023-02-11T12:07:50.328Z,70.89
2023-02-11T12:09:54.040Z,71.03
2023-02-11T12:12:11.469Z,71.23
2023-02-11T12:14:20.832Z,71.12
2023-02-11T12:16:34.674Z,71.07
2023-02-11T12:18:36.132Z,70.94
2023-02-11T12:21:09.631Z,71.10
2023-02-11T12:23:06.815Z,70.84
2023-02-11T12:25:26.188Z,71.06
2023-02-11T12:27:42.175Z,70.84
2023-02-11T12:29:51.819Z,70.80
2023-02-11T12:31:52.140Z,70.61
2023-02-11T12:34:10.938Z,70.80
2023-02-11T12:36:11.759Z,70.56
2023-02-11T12:38:15.892Z,70.35
2023-02-11T12:40:12.947Z,70.47
2023-02-11T12:42:35.489Z,70.58
2023-02-11T12:44:45.559Z,70.75
2023-02-11T12:46:51.284Z,71.03
2023-02-11T12:48:56.969Z,71.06
2023-02-11T12:51:06.769Z,71.18
2023-02-11T12:53:08.779Z,71.08
2023-02-11T12:55:23.655Z,71.06
2023-02-11T12:57:21.468Z,71.25
2023-02-11T12:59:18.385Z,71.12
2023-02-11T13:01:16.265Z,71.20
2023-02-11T13:03:13.119Z,71.11
2023-02-11T13:05:26.401Z,71.21
2023-02-11T13:07:31.737Z,71.06
2023-02-11T13:09:27.222Z,71.11
2023-02-11T13:11:28.800Z,71.23
2023-02-11T13:13:27.662Z,71.15
2023-02-11T13:15:19.345Z,71.22
2023-02-11T13:17:21.056Z,71.05
2023-02-11T13:19:23.797Z,71.08
2023-02-11T13:21:14.974Z,71.13
2023-02-11T13:23:15.812Z,71.14
2023-02-11T13:25:19.432Z,71.14
2023-02-11T13:27:29.777Z,71.27
2023-02-11T13:29:21.316Z,71.32
2023-02-11T13:31:14.799Z,71.35
2023-02-11T13:33:17.809Z,71.43
2023-02-11T13:35:29.362Z,71.45
2023-02-11T13:37:49.634Z,71.67
2023-02-11T13:39:41.178Z,71.80
2023-02-11T13:41:40.003Z,71.85
2023-02-11T13:43:33.906Z,71.91
2023-02-11T13:45:44.052Z,71.87
2023-02-11T13:47:37.637Z,72.03
2023-02-11T13:49:38.283Z,72.17
2023-02-11T13:51:40.690Z,72.19
2023-02-11T13:53:52.932Z,72.23
2023-02-11T13:55:46.557Z,72.23
2023-02-11T13:57:39.655Z,72.37
2023-02-11T13:59:33.078Z,72.28
2023-02-11T14:02:07.907Z,72.34
2023-02-11T14:04:38.117Z,72.39
2023-02-11T14:07:04.954Z,72.46
2023-02-11T14:09:14.151Z,72.59
2023-02-11T14:11:23.503Z,72.80
2023-02-11T14:13:33.634Z,72.79
2023-02-11T14:15:27.079Z,72.97
2023-02-11T14:17:18.944Z,73.18
2023-02-11T14:19:10.276Z,73.32
2023-02-11T14:21:13.579Z,73.42
2023-02-11T14:23:05.970Z,73.62
2023-02-11T14:24:59.872Z,73.74
2023-02-11T14:27:11.572Z,73.79
2023-02-11T14:29:24.180Z,74.03
2023-02-11T14:31:21.787Z,74.14
2023-02-11T14:33:29.357Z,74.25
2023-02-11T14:35:29.421Z,74.45
2023-02-11T14:37:50.616Z,74.60
2023-02-11T14:40:03.651Z,74.77
2023-02-11T14:41:55.746Z,74.92
2023-02-11T14:43:49.948Z,74.99
2023-02-11T14:45:43.637Z,75.23
2023-02-11T14:47:41.856Z,75.41
2023-02-11T14:49:36.545Z,75.75
2023-02-11T14:51:34.895Z,76.01
2023-02-11T14:53:28.362Z,76.09
2023-02-11T14:55:52.463Z,76.22
2023-02-11T14:57:45.685Z,76.63
2023-02-11T14:59:37.343Z,76.94
2023-02-11T15:01:35.208Z,77.12
2023-02-11T15:03:37.897Z,77.55
2023-02-11T15:05:29.804Z,78.00
2023-02-11T15:07:21.861Z,78.38
2023-02-11T15:09:17.134Z,78.48
2023-02-11T15:11:12.473Z,78.99
2023-02-11T15:13:04.975Z,79.06
2023-02-11T15:14:59.261Z,79.37
2023-02-11T15:16:53.587Z,79.99
2023-02-11T15:18:48.416Z,80.18
2023-02-11T15:20:41.162Z,80.41
2023-02-11T15:22:36.500Z,80.82
2023-02-11T15:24:31.007Z,80.96
2023-02-11T15:26:22.554Z,81.10
2023-02-11T15:28:22.673Z,81.22
2023-02-11T15:30:22.760Z,81.73
2023-02-11T15:32:16.835Z,81.89
2023-02-11T15:34:08.944Z,82.11
2023-02-11T15:36:02.079Z,81.85
2023-02-11T15:37:53.455Z,81.99
2023-02-11T15:39:45.139Z,82.26
2023-02-11T15:41:38.355Z,82.46
2023-02-11T15:43:48.995Z,82.41
2023-02-11T15:45:43.266Z,82.42
2023-02-11T15:47:35.427Z,82.69
2023-02-11T15:49:27.280Z,82.71
2023-02-11T15:51:25.317Z,82.83
2023-02-11T15:53:25.975Z,83.25
2023-02-11T15:55:17.475Z,83.62
2023-02-11T15:57:10.141Z,83.50
2023-02-11T15:59:20.315Z,83.55
2023-02-11T16:01:12.779Z,83.63
2023-02-11T16:03:04.668Z,83.82
2023-02-11T16:04:58.027Z,84.03
2023-02-11T16:06:50.673Z,84.37
2023-02-11T16:08:43.155Z,84.21
2023-02-11T16:10:36.146Z,84.12
2023-02-11T16:12:27.532Z,84.34
2023-02-11T16:14:29.421Z,84.40
2023-02-11T16:16:25.322Z,84.43
2023-02-11T16:18:37.736Z,84.51
2023-02-11T16:20:30.153Z,84.58
2023-02-11T16:22:26.471Z,84.74
2023-02-11T16:24:25.150Z,84.78
2023-02-11T16:26:32.877Z,84.70
2023-02-11T16:28:24.187Z,84.62
2023-02-11T16:30:29.215Z,84.54
2023-02-11T16:32:26.092Z,84.69
2023-02-11T16:34:22.698Z,84.65
2023-02-11T16:36:17.252Z,84.53
2023-02-11T16:38:09.013Z,84.65
2023-02-11T16:40:00.151Z,84.58
2023-02-11T16:41:52.371Z,84.57
2023-02-11T16:43:43.668Z,84.47
2023-02-11T16:45:38.511Z,84.41
2023-02-11T16:47:31.164Z,84.39
2023-02-11T16:49:36.259Z,84.35
2023-02-11T16:51:27.769Z,84.32
2023-02-11T16:53:22.837Z,84.44
2023-02-11T16:55:15.322Z,84.17
2023-02-11T16:57:14.211Z,84.22
2023-02-11T16:59:05.781Z,84.08
2023-02-11T17:00:57.563Z,84.23
2023-02-11T17:02:49.500Z,84.21
2023-02-11T17:04:41.333Z,84.20
2023-02-11T17:06:33.863Z,84.10
2023-02-11T17:08:25.605Z,83.96
2023-02-11T17:10:22.509Z,83.92
2023-02-11T17:12:14.012Z,83.84
2023-02-11T17:14:05.665Z,83.82
2023-02-11T17:15:57.310Z,83.71
2023-02-11T17:17:48.699Z,83.79
2023-02-11T17:19:39.988Z,83.70
2023-02-11T17:21:32.014Z,83.63
2023-02-11T17:23:23.467Z,83.70
2023-02-11T17:25:14.847Z,83.80
2023-02-11T17:27:06.201Z,83.84
2023-02-11T17:28:57.530Z,83.72
2023-02-11T17:30:48.587Z,83.66
2023-02-11T17:32:39.738Z,83.67
2023-02-11T17:34:32.349Z,83.60
2023-02-11T17:36:24.040Z,83.51
2023-02-11T17:38:15.860Z,83.33
2023-02-11T17:40:08.371Z,83.37
2023-02-11T17:41:59.652Z,83.60
2023-02-11T17:43:50.854Z,83.52
2023-02-11T17:45:42.497Z,83.60
2023-02-11T17:47:34.223Z,83.64
2023-02-11T17:49:25.885Z,83.80
2023-02-11T17:51:26.317Z,83.79
2023-02-11T17:53:17.903Z,83.86
2023-02-11T17:55:09.204Z,83.95
2023-02-11T17:57:00.997Z,84.18
2023-02-11T17:58:53.260Z,84.11
2023-02-11T18:00:45.404Z,84.18
2023-02-11T18:02:36.807Z,84.29
2023-02-11T18:04:29.063Z,84.19
2023-02-11T18:06:21.645Z,84.20
2023-02-11T18:08:13.497Z,84.34
2023-02-11T18:10:06.963Z,84.41
2023-02-11T18:11:58.955Z,84.36
2023-02-11T18:13:54.418Z,84.42
2023-02-11T18:15:46.084Z,84.33
2023-02-11T18:17:37.457Z,84.44
2023-02-11T18:19:30.616Z,84.47
2023-02-11T18:21:22.497Z,84.47
2023-02-11T18:23:13.948Z,84.54
2023-02-11T18:25:07.291Z,84.45
2023-02-11T18:26:58.748Z,84.44
2023-02-11T18:28:49.887Z,84.29
2023-02-11T18:30:41.512Z,84.39
2023-02-11T18:32:33.024Z,84.50
2023-02-11T18:34:24.706Z,84.57
2023-02-11T18:36:16.835Z,84.52
2023-02-11T18:38:08.869Z,84.55
2023-02-11T18:40:00.466Z,84.79
2023-02-11T18:41:55.027Z,84.71
2023-02-11T18:43:46.693Z,84.95
2023-02-11T18:45:42.983Z,84.90
2023-02-11T18:47:34.414Z,84.95
2023-02-11T18:49:25.936Z,85.04
2023-02-11T18:51:21.267Z,85.21
2023-02-11T18:53:15.673Z,85.13
2023-02-11T18:55:08.094Z,85.13
2023-02-11T18:56:59.480Z,85.32
2023-02-11T18:58:52.069Z,85.35
2023-02-11T19:00:46.104Z,85.36
2023-02-11T19:02:37.613Z,85.45
2023-02-11T19:04:29.014Z,85.39
2023-02-11T19:06:24.952Z,85.37
2023-02-11T19:08:17.173Z,85.52
2023-02-11T19:10:08.904Z,85.47
2023-02-11T19:12:01.950Z,85.60
2023-02-11T19:13:53.080Z,85.67
2023-02-11T19:15:45.872Z,85.80
2023-02-11T19:17:38.283Z,85.94
2023-02-11T19:19:31.413Z,85.91
2023-02-11T19:21:22.883Z,86.09
2023-02-11T19:23:14.368Z,85.97
2023-02-11T19:25:07.262Z,85.91
2023-02-11T19:27:00.757Z,85.74
2023-02-11T19:28:52.080Z,85.94
2023-02-11T19:30:43.826Z,86.13
2023-02-11T19:32:34.916Z,86.03
2023-02-11T19:34:26.496Z,86.02
2023-02-11T19:36:18.634Z,86.02
2023-02-11T19:38:10.182Z,86.04
2023-02-11T19:40:01.297Z,85.90
2023-02-11T19:41:53.526Z,85.93
2023-02-11T19:43:47.056Z,85.91
2023-02-11T19:45:38.247Z,86.03
2023-02-11T19:47:29.810Z,85.90
2023-02-11T19:49:24.531Z,86.20
2023-02-11T19:51:15.946Z,86.02
2023-02-11T19:53:07.533Z,85.96
2023-02-11T19:54:59.807Z,86.06
2023-02-11T19:56:51.238Z,86.24
2023-02-11T19:58:43.709Z,86.21
2023-02-11T20:00:34.952Z,86.17
2023-02-11T20:02:26.066Z,86.26
2023-02-11T20:04:17.526Z,86.25
2023-02-11T20:06:17.122Z,86.17
2023-02-11T20:08:08.344Z,86.00
2023-02-11T20:09:59.939Z,86.04
2023-02-11T20:11:51.600Z,86.13
2023-02-11T20:13:43.694Z,86.15
2023-02-11T20:15:35.098Z,86.16
2023-02-11T20:17:26.730Z,86.04
2023-02-11T20:19:21.524Z,86.03
2023-02-11T20:21:15.334Z,85.99
2023-02-11T20:23:06.765Z,85.91
2023-02-11T20:24:57.842Z,85.86
2023-02-11T20:26:49.750Z,85.74
2023-02-11T20:28:41.352Z,85.66
2023-02-11T20:30:32.858Z,85.57
2023-02-11T20:32:24.252Z,85.61
2023-02-11T20:34:17.615Z,85.41
2023-02-11T20:36:21.148Z,85.34
2023-02-11T20:38:12.712Z,85.27
2023-02-11T20:40:06.052Z,85.22
2023-02-11T20:41:58.162Z,85.27
2023-02-11T20:43:53.180Z,85.40
2023-02-11T20:45:45.565Z,85.34
2023-02-11T20:47:37.794Z,85.41
2023-02-11T20:49:29.111Z,85.41
2023-02-11T20:51:23.951Z,85.38
2023-02-11T20:53:15.419Z,85.36
2023-02-11T20:55:06.638Z,85.18
2023-02-11T20:56:58.404Z,85.28
2023-02-11T20:58:50.101Z,85.38
2023-02-11T21:00:41.411Z,85.20
2023-02-11T21:02:32.437Z,85.16
2023-02-11T21:04:27.620Z,85.20
2023-02-11T21:06:20.097Z,85.06
2023-02-11T21:08:11.645Z,85.08
2023-02-11T21:10:03.683Z,85.09
2023-02-11T21:11:55.535Z,85.12
2023-02-11T21:13:46.818Z,85.19
2023-02-11T21:15:38.130Z,85.14
2023-02-11T21:17:29.816Z,85.10
2023-02-11T21:19:21.367Z,85.19
2023-02-11T21:21:13.047Z,85.15
2023-02-11T21:23:04.676Z,85.00
2023-02-11T21:24:56.241Z,84.95
2023-02-11T21:26:47.273Z,84.96
2023-02-11T21:28:40.970Z,84.93
2023-02-11T21:30:32.721Z,84.91
2023-02-11T21:32:24.145Z,85.01
2023-02-11T21:34:16.226Z,85.20
2023-02-11T21:36:08.048Z,85.36
2023-02-11T21:37:59.594Z,85.32
2023-02-11T21:39:51.082Z,85.29
2023-02-11T21:41:42.437Z,85.37
2023-02-11T21:43:34.149Z,85.27
2023-02-11T21:45:25.755Z,85.30
2023-02-11T21:47:17.135Z,85.36
2023-02-11T21:49:08.383Z,85.23
2023-02-11T21:51:04.634Z,85.50
2023-02-11T21:52:55.996Z,85.38
2023-02-11T21:54:49.894Z,85.30
2023-02-11T21:56:41.555Z,85.21
2023-02-11T21:58:32.965Z,85.20
2023-02-11T22:00:24.590Z,85.13
2023-02-11T22:02:16.075Z,85.04
2023-02-11T22:04:07.380Z,85.05
2023-02-11T22:05:58.981Z,84.98
2023-02-11T22:07:50.308Z,85.07
2023-02-11T22:09:43.904Z,85.00
2023-02-11T22:11:35.860Z,85.20
2023-02-11T22:13:27.954Z,85.05
2023-02-11T22:15:19.778Z,85.24
2023-02-11T22:17:11.207Z,85.34
2023-02-11T22:19:02.571Z,85.35
2023-02-11T22:21:05.361Z,85.44
2023-02-11T22:22:56.701Z,85.48
2023-02-11T22:24:48.043Z,85.48
2023-02-11T22:26:39.661Z,85.39
2023-02-11T22:28:31.319Z,85.43
2023-02-11T22:30:22.759Z,85.55
2023-02-11T22:32:14.652Z,85.71
2023-02-11T22:34:06.486Z,85.68
2023-02-11T22:36:02.225Z,85.72
2023-02-11T22:37:53.411Z,85.60
2023-02-11T22:39:44.810Z,85.63
2023-02-11T22:41:36.018Z,85.78
2023-02-11T22:43:27.987Z,85.73
2023-02-11T22:45:19.369Z,85.61
2023-02-11T22:47:10.824Z,85.64
2023-02-11T22:49:02.348Z,85.60
2023-02-11T22:50:53.642Z,85.68
2023-02-11T22:52:44.990Z,85.67
2023-02-11T22:54:36.711Z,85.58
2023-02-11T22:56:29.486Z,85.74
2023-02-11T22:58:20.574Z,85.64
2023-02-11T23:00:12.605Z,85.63
2023-02-11T23:02:04.140Z,85.80
2023-02-11T23:03:55.573Z,85.98
2023-02-11T23:05:47.311Z,86.03
2023-02-11T23:07:39.009Z,86.09
2023-02-11T23:09:30.496Z,85.99
2023-02-11T23:11:24.121Z,86.02
2023-02-11T23:13:15.793Z,86.04
2023-02-11T23:15:07.515Z,86.04
2023-02-11T23:16:59.151Z,86.07
2023-02-11T23:18:51.024Z,86.11
2023-02-11T23:20:43.831Z,85.99
2023-02-11T23:22:35.310Z,86.14
2023-02-11T23:24:26.688Z,86.14
2023-02-11T23:26:18.430Z,85.96
2023-02-11T23:28:11.873Z,85.89
2023-02-11T23:30:04.589Z,86.05
2023-02-11T23:31:58.700Z,85.98
2023-02-11T23:33:50.852Z,85.88
2023-02-11T23:35:41.864Z,85.98
2023-02-11T23:37:33.261Z,85.99
2023-02-11T23:39:24.679Z,85.97
2023-02-11T23:41:16.652Z,86.04
2023-02-11T23:43:08.471Z,86.10
2023-02-11T23:45:01.006Z,86.18
2023-02-11T23:46:52.178Z,86.03
2023-02-11T23:48:43.631Z,86.04
2023-02-11T23:50:37.352Z,86.07
2023-02-11T23:52:28.848Z,86.00
2023-02-11T23:54:20.361Z,85.93
2023-02-11T23:56:16.458Z,85.95
2023-02-11T23:58:08.369Z,85.89
2023-02-11T23:59:59.874Z,85.93
